sensor_id;sensor_type;location;lat;lon;timestamp;P1;durP1;ratioP1;P2;durP2;ratioP2
75506;SDS011;64086;43.220;27.878;2023-07-31T00:00:56;4.93;;;4.18;;
75506;SDS011;64086;43.220;27.878;2023-07-31T00:03:22;5.63;;;4.10;;
75506;SDS011;64086;43.220;27.878;2023-07-31T00:05:48;5.47;;;3.85;;
75506;SDS011;64086;43.220;27.878;2023-07-31T00:08:13;5.30;;;4.45;;
75506;SDS011;64086;43.220;27.878;2023-07-31T00:10:39;5.95;;;4.35;;
75506;SDS011;64086;43.220;27.878;2023-07-31T00:13:04;4.30;;;3.90;;
75506;SDS011;64086;43.220;27.878;2023-07-31T00:15:30;5.38;;;4.57;;
75506;SDS011;64086;43.220;27.878;2023-07-31T00:17:55;5.07;;;4.55;;
75506;SDS011;64086;43.220;27.878;2023-07-31T00:20:21;5.25;;;4.43;;
75506;SDS011;64086;43.220;27.878;2023-07-31T00:22:46;5.90;;;4.50;;
75506;SDS011;64086;43.220;27.878;2023-07-31T00:25:11;6.22;;;5.18;;
75506;SDS011;64086;43.220;27.878;2023-07-31T00:27:37;5.97;;;4.82;;
75506;SDS011;64086;43.220;27.878;2023-07-31T00:30:02;6.38;;;4.90;;
75506;SDS011;64086;43.220;27.878;2023-07-31T00:32:28;7.00;;;4.43;;
75506;SDS011;64086;43.220;27.878;2023-07-31T00:34:54;6.20;;;4.55;;
75506;SDS011;64086;43.220;27.878;2023-07-31T00:37:19;20.35;;;6.35;;
75506;SDS011;64086;43.220;27.878;2023-07-31T00:39:44;9.75;;;4.70;;
75506;SDS011;64086;43.220;27.878;2023-07-31T00:42:10;6.28;;;3.95;;
75506;SDS011;64086;43.220;27.878;2023-07-31T00:44:35;5.75;;;4.05;;
75506;SDS011;64086;43.220;27.878;2023-07-31T00:47:01;4.72;;;4.03;;
75506;SDS011;64086;43.220;27.878;2023-07-31T00:49:26;4.65;;;3.92;;
75506;SDS011;64086;43.220;27.878;2023-07-31T00:51:52;4.93;;;3.70;;
75506;SDS011;64086;43.220;27.878;2023-07-31T00:54:18;5.93;;;3.90;;
75506;SDS011;64086;43.220;27.878;2023-07-31T00:56:44;6.50;;;3.80;;
75506;SDS011;64086;43.220;27.878;2023-07-31T00:59:10;5.05;;;3.95;;
75506;SDS011;64086;43.220;27.878;2023-07-31T01:01:36;4.72;;;3.88;;
75506;SDS011;64086;43.220;27.878;2023-07-31T01:04:02;4.22;;;3.70;;
75506;SDS011;64086;43.220;27.878;2023-07-31T01:06:40;6.90;;;4.18;;
75506;SDS011;64086;43.220;27.878;2023-07-31T01:11:52;5.55;;;4.32;;
75506;SDS011;64086;43.220;27.878;2023-07-31T01:14:18;5.22;;;4.20;;
75506;SDS011;64086;43.220;27.878;2023-07-31T01:16:44;4.40;;;3.90;;
75506;SDS011;64086;43.220;27.878;2023-07-31T01:19:09;5.93;;;3.78;;
75506;SDS011;64086;43.220;27.878;2023-07-31T01:24:36;5.07;;;4.45;;
75506;SDS011;64086;43.220;27.878;2023-07-31T01:27:36;5.30;;;4.03;;
75506;SDS011;64086;43.220;27.878;2023-07-31T01:29:45;7.45;;;4.50;;
75506;SDS011;64086;43.220;27.878;2023-07-31T01:32:12;6.63;;;4.43;;
75506;SDS011;64086;43.220;27.878;2023-07-31T01:34:38;5.15;;;4.53;;
75506;SDS011;64086;43.220;27.878;2023-07-31T01:37:04;5.57;;;4.50;;
75506;SDS011;64086;43.220;27.878;2023-07-31T01:39:30;6.85;;;4.47;;
75506;SDS011;64086;43.220;27.878;2023-07-31T01:41:55;8.57;;;4.80;;
75506;SDS011;64086;43.220;27.878;2023-07-31T01:44:21;5.35;;;4.85;;
75506;SDS011;64086;43.220;27.878;2023-07-31T01:46:46;5.15;;;4.65;;
75506;SDS011;64086;43.220;27.878;2023-07-31T01:49:12;6.25;;;4.95;;
75506;SDS011;64086;43.220;27.878;2023-07-31T01:51:38;5.65;;;5.15;;
75506;SDS011;64086;43.220;27.878;2023-07-31T01:54:03;5.70;;;5.20;;
75506;SDS011;64086;43.220;27.878;2023-07-31T01:56:28;6.65;;;4.85;;
75506;SDS011;64086;43.220;27.878;2023-07-31T01:58:54;6.63;;;5.32;;
75506;SDS011;64086;43.220;27.878;2023-07-31T02:01:19;5.70;;;4.53;;
75506;SDS011;64086;43.220;27.878;2023-07-31T02:03:45;5.32;;;4.82;;
75506;SDS011;64086;43.220;27.878;2023-07-31T02:06:10;5.55;;;4.57;;
75506;SDS011;64086;43.220;27.878;2023-07-31T02:08:36;6.13;;;5.10;;
75506;SDS011;64086;43.220;27.878;2023-07-31T02:11:01;5.65;;;4.55;;
75506;SDS011;64086;43.220;27.878;2023-07-31T02:13:27;5.88;;;4.90;;
75506;SDS011;64086;43.220;27.878;2023-07-31T02:15:52;6.07;;;4.78;;
75506;SDS011;64086;43.220;27.878;2023-07-31T02:18:18;5.65;;;4.57;;
75506;SDS011;64086;43.220;27.878;2023-07-31T02:20:48;5.75;;;4.45;;
75506;SDS011;64086;43.220;27.878;2023-07-31T02:23:14;5.15;;;4.55;;
75506;SDS011;64086;43.220;27.878;2023-07-31T02:25:40;8.15;;;4.30;;
75506;SDS011;64086;43.220;27.878;2023-07-31T02:28:05;5.97;;;4.40;;
75506;SDS011;64086;43.220;27.878;2023-07-31T02:30:31;4.70;;;4.30;;
75506;SDS011;64086;43.220;27.878;2023-07-31T02:32:56;5.20;;;4.70;;
75506;SDS011;64086;43.220;27.878;2023-07-31T02:35:22;5.70;;;5.07;;
75506;SDS011;64086;43.220;27.878;2023-07-31T02:37:47;5.13;;;4.63;;
75506;SDS011;64086;43.220;27.878;2023-07-31T02:40:13;5.78;;;5.18;;
75506;SDS011;64086;43.220;27.878;2023-07-31T02:42:39;7.25;;;5.40;;
75506;SDS011;64086;43.220;27.878;2023-07-31T02:45:04;7.82;;;5.50;;
75506;SDS011;64086;43.220;27.878;2023-07-31T02:47:30;7.35;;;5.43;;
75506;SDS011;64086;43.220;27.878;2023-07-31T02:49:55;6.18;;;5.57;;
75506;SDS011;64086;43.220;27.878;2023-07-31T02:52:21;7.07;;;4.97;;
75506;SDS011;64086;43.220;27.878;2023-07-31T02:54:46;7.28;;;5.35;;
75506;SDS011;64086;43.220;27.878;2023-07-31T02:57:12;7.03;;;5.63;;
75506;SDS011;64086;43.220;27.878;2023-07-31T02:59:37;9.85;;;6.18;;
75506;SDS011;64086;43.220;27.878;2023-07-31T03:02:03;7.53;;;6.32;;
75506;SDS011;64086;43.220;27.878;2023-07-31T03:04:29;7.03;;;5.40;;
75506;SDS011;64086;43.220;27.878;2023-07-31T03:06:54;7.38;;;5.75;;
75506;SDS011;64086;43.220;27.878;2023-07-31T03:09:19;7.63;;;5.30;;
75506;SDS011;64086;43.220;27.878;2023-07-31T03:11:45;7.32;;;5.20;;
75506;SDS011;64086;43.220;27.878;2023-07-31T03:14:10;7.63;;;6.18;;
75506;SDS011;64086;43.220;27.878;2023-07-31T03:16:36;11.90;;;5.75;;
75506;SDS011;64086;43.220;27.878;2023-07-31T03:19:02;6.32;;;5.60;;
75506;SDS011;64086;43.220;27.878;2023-07-31T03:21:27;6.32;;;5.05;;
75506;SDS011;64086;43.220;27.878;2023-07-31T03:23:52;6.97;;;5.13;;
75506;SDS011;64086;43.220;27.878;2023-07-31T03:26:18;8.35;;;5.30;;
75506;SDS011;64086;43.220;27.878;2023-07-31T03:28:43;7.03;;;5.35;;
75506;SDS011;64086;43.220;27.878;2023-07-31T03:31:09;7.00;;;5.15;;
75506;SDS011;64086;43.220;27.878;2023-07-31T03:33:34;6.28;;;4.97;;
75506;SDS011;64086;43.220;27.878;2023-07-31T03:36:00;8.40;;;6.28;;
75506;SDS011;64086;43.220;27.878;2023-07-31T03:38:25;8.30;;;5.55;;
75506;SDS011;64086;43.220;27.878;2023-07-31T03:40:51;11.48;;;5.82;;
75506;SDS011;64086;43.220;27.878;2023-07-31T03:43:16;8.27;;;5.45;;
75506;SDS011;64086;43.220;27.878;2023-07-31T03:45:42;8.15;;;5.65;;
75506;SDS011;64086;43.220;27.878;2023-07-31T03:48:07;6.82;;;5.00;;
75506;SDS011;64086;43.220;27.878;2023-07-31T03:50:33;8.20;;;5.32;;
75506;SDS011;64086;43.220;27.878;2023-07-31T03:52:59;7.20;;;5.30;;
75506;SDS011;64086;43.220;27.878;2023-07-31T03:55:24;8.35;;;5.05;;
75506;SDS011;64086;43.220;27.878;2023-07-31T03:57:49;5.68;;;5.18;;
75506;SDS011;64086;43.220;27.878;2023-07-31T04:00:15;6.82;;;5.25;;
75506;SDS011;64086;43.220;27.878;2023-07-31T04:02:40;5.68;;;5.05;;
75506;SDS011;64086;43.220;27.878;2023-07-31T04:05:06;6.45;;;5.28;;
75506;SDS011;64086;43.220;27.878;2023-07-31T04:07:32;8.43;;;5.40;;
75506;SDS011;64086;43.220;27.878;2023-07-31T04:09:59;7.57;;;5.50;;
75506;SDS011;64086;43.220;27.878;2023-07-31T04:12:25;8.32;;;5.82;;
75506;SDS011;64086;43.220;27.878;2023-07-31T04:14:50;9.60;;;6.15;;
75506;SDS011;64086;43.220;27.878;2023-07-31T04:17:17;6.88;;;5.57;;
75506;SDS011;64086;43.220;27.878;2023-07-31T04:19:43;7.10;;;5.38;;
75506;SDS011;64086;43.220;27.878;2023-07-31T04:22:08;7.15;;;5.03;;
75506;SDS011;64086;43.220;27.878;2023-07-31T04:24:33;8.02;;;5.50;;
75506;SDS011;64086;43.220;27.878;2023-07-31T04:26:59;6.78;;;5.10;;
75506;SDS011;64086;43.220;27.878;2023-07-31T04:29:24;6.90;;;4.70;;
75506;SDS011;64086;43.220;27.878;2023-07-31T04:31:50;6.65;;;5.05;;
75506;SDS011;64086;43.220;27.878;2023-07-31T04:34:15;7.88;;;6.68;;
75506;SDS011;64086;43.220;27.878;2023-07-31T04:36:40;11.68;;;5.97;;
75506;SDS011;64086;43.220;27.878;2023-07-31T04:39:06;7.63;;;5.53;;
75506;SDS011;64086;43.220;27.878;2023-07-31T04:41:32;9.27;;;6.90;;
75506;SDS011;64086;43.220;27.878;2023-07-31T04:43:57;8.23;;;5.75;;
75506;SDS011;64086;43.220;27.878;2023-07-31T04:46:23;10.48;;;6.18;;
75506;SDS011;64086;43.220;27.878;2023-07-31T04:48:48;11.75;;;5.85;;
75506;SDS011;64086;43.220;27.878;2023-07-31T04:51:13;7.22;;;6.22;;
75506;SDS011;64086;43.220;27.878;2023-07-31T04:53:39;8.52;;;5.53;;
75506;SDS011;64086;43.220;27.878;2023-07-31T04:56:04;8.55;;;6.82;;
75506;SDS011;64086;43.220;27.878;2023-07-31T04:58:30;8.48;;;5.93;;
75506;SDS011;64086;43.220;27.878;2023-07-31T05:00:55;8.18;;;5.70;;
75506;SDS011;64086;43.220;27.878;2023-07-31T05:03:21;13.15;;;6.32;;
75506;SDS011;64086;43.220;27.878;2023-07-31T05:05:46;14.07;;;6.60;;
75506;SDS011;64086;43.220;27.878;2023-07-31T05:08:12;9.18;;;6.20;;
75506;SDS011;64086;43.220;27.878;2023-07-31T05:10:38;10.98;;;6.43;;
75506;SDS011;64086;43.220;27.878;2023-07-31T05:13:03;16.88;;;7.80;;
75506;SDS011;64086;43.220;27.878;2023-07-31T05:15:29;11.35;;;6.55;;
75506;SDS011;64086;43.220;27.878;2023-07-31T05:17:55;9.43;;;6.25;;
75506;SDS011;64086;43.220;27.878;2023-07-31T05:20:20;11.93;;;5.95;;
75506;SDS011;64086;43.220;27.878;2023-07-31T05:22:46;7.38;;;6.07;;
75506;SDS011;64086;43.220;27.878;2023-07-31T05:25:12;9.20;;;6.50;;
75506;SDS011;64086;43.220;27.878;2023-07-31T05:27:37;15.77;;;7.10;;
75506;SDS011;64086;43.220;27.878;2023-07-31T05:30:03;15.35;;;7.28;;
75506;SDS011;64086;43.220;27.878;2023-07-31T05:32:29;7.90;;;6.20;;
75506;SDS011;64086;43.220;27.878;2023-07-31T05:34:54;9.30;;;6.15;;
75506;SDS011;64086;43.220;27.878;2023-07-31T05:37:20;9.57;;;7.10;;
75506;SDS011;64086;43.220;27.878;2023-07-31T05:39:47;8.90;;;6.80;;
75506;SDS011;64086;43.220;27.878;2023-07-31T05:42:12;10.65;;;8.13;;
75506;SDS011;64086;43.220;27.878;2023-07-31T05:44:37;13.13;;;10.23;;
75506;SDS011;64086;43.220;27.878;2023-07-31T05:47:03;21.60;;;18.63;;
75506;SDS011;64086;43.220;27.878;2023-07-31T05:49:29;15.18;;;13.60;;
75506;SDS011;64086;43.220;27.878;2023-07-31T05:51:55;15.55;;;13.73;;
75506;SDS011;64086;43.220;27.878;2023-07-31T05:54:20;11.43;;;9.73;;
75506;SDS011;64086;43.220;27.878;2023-07-31T05:56:45;16.27;;;11.70;;
75506;SDS011;64086;43.220;27.878;2023-07-31T05:59:11;12.75;;;11.27;;
75506;SDS011;64086;43.220;27.878;2023-07-31T06:01:37;14.43;;;11.10;;
75506;SDS011;64086;43.220;27.878;2023-07-31T06:04:03;14.27;;;11.35;;
75506;SDS011;64086;43.220;27.878;2023-07-31T06:06:29;11.85;;;10.65;;
75506;SDS011;64086;43.220;27.878;2023-07-31T06:08:54;10.52;;;9.55;;
75506;SDS011;64086;43.220;27.878;2023-07-31T06:11:20;10.25;;;9.23;;
75506;SDS011;64086;43.220;27.878;2023-07-31T06:13:46;8.90;;;8.00;;
75506;SDS011;64086;43.220;27.878;2023-07-31T06:16:13;6.03;;;5.43;;
75506;SDS011;64086;43.220;27.878;2023-07-31T06:18:39;8.52;;;7.55;;
75506;SDS011;64086;43.220;27.878;2023-07-31T06:21:05;9.13;;;7.35;;
75506;SDS011;64086;43.220;27.878;2023-07-31T06:23:30;8.88;;;7.45;;
75506;SDS011;64086;43.220;27.878;2023-07-31T06:25:56;9.05;;;8.10;;
75506;SDS011;64086;43.220;27.878;2023-07-31T06:28:23;10.20;;;7.88;;
75506;SDS011;64086;43.220;27.878;2023-07-31T06:47:36;7.15;;;6.18;;
75506;SDS011;64086;43.220;27.878;2023-07-31T06:50:02;6.90;;;5.53;;
75506;SDS011;64086;43.220;27.878;2023-07-31T06:52:28;5.60;;;4.78;;
75506;SDS011;64086;43.220;27.878;2023-07-31T06:55:00;6.22;;;5.30;;
75506;SDS011;64086;43.220;27.878;2023-07-31T06:57:28;6.53;;;5.40;;
75506;SDS011;64086;43.220;27.878;2023-07-31T06:59:54;5.82;;;5.22;;
75506;SDS011;64086;43.220;27.878;2023-07-31T07:02:19;6.88;;;5.20;;
75506;SDS011;64086;43.220;27.878;2023-07-31T07:04:44;7.45;;;5.88;;
75506;SDS011;64086;43.220;27.878;2023-07-31T07:07:10;5.65;;;5.13;;
75506;SDS011;64086;43.220;27.878;2023-07-31T07:09:35;6.10;;;5.57;;
75506;SDS011;64086;43.220;27.878;2023-07-31T07:12:01;6.30;;;5.80;;
75506;SDS011;64086;43.220;27.878;2023-07-31T07:14:26;6.65;;;5.97;;
75506;SDS011;64086;43.220;27.878;2023-07-31T07:16:52;6.97;;;5.85;;
75506;SDS011;64086;43.220;27.878;2023-07-31T07:19:17;6.72;;;6.20;;
75506;SDS011;64086;43.220;27.878;2023-07-31T07:21:42;7.63;;;6.38;;
75506;SDS011;64086;43.220;27.878;2023-07-31T07:24:08;12.43;;;8.25;;
75506;SDS011;64086;43.220;27.878;2023-07-31T07:26:33;9.40;;;7.20;;
75506;SDS011;64086;43.220;27.878;2023-07-31T07:28:59;8.02;;;7.30;;
75506;SDS011;64086;43.220;27.878;2023-07-31T07:31:27;13.45;;;7.88;;
75506;SDS011;64086;43.220;27.878;2023-07-31T07:33:52;9.40;;;7.97;;
75506;SDS011;64086;43.220;27.878;2023-07-31T07:36:18;11.18;;;8.10;;
75506;SDS011;64086;43.220;27.878;2023-07-31T07:38:43;10.20;;;7.80;;
75506;SDS011;64086;43.220;27.878;2023-07-31T07:41:09;9.35;;;8.32;;
75506;SDS011;64086;43.220;27.878;2023-07-31T07:43:34;8.70;;;7.85;;
75506;SDS011;64086;43.220;27.878;2023-07-31T07:45:59;9.30;;;8.43;;
75506;SDS011;64086;43.220;27.878;2023-07-31T07:48:25;9.13;;;8.18;;
75506;SDS011;64086;43.220;27.878;2023-07-31T07:50:50;8.77;;;7.90;;
75506;SDS011;64086;43.220;27.878;2023-07-31T07:53:16;8.68;;;7.97;;
75506;SDS011;64086;43.220;27.878;2023-07-31T07:55:41;8.57;;;7.70;;
75506;SDS011;64086;43.220;27.878;2023-07-31T07:58:07;9.88;;;8.98;;
75506;SDS011;64086;43.220;27.878;2023-07-31T08:00:33;9.20;;;8.43;;
75506;SDS011;64086;43.220;27.878;2023-07-31T08:02:58;9.30;;;8.60;;
75506;SDS011;64086;43.220;27.878;2023-07-31T08:05:24;9.05;;;8.20;;
75506;SDS011;64086;43.220;27.878;2023-07-31T08:07:50;9.43;;;8.52;;
75506;SDS011;64086;43.220;27.878;2023-07-31T08:10:15;9.18;;;8.25;;
75506;SDS011;64086;43.220;27.878;2023-07-31T08:12:41;8.15;;;7.45;;
75506;SDS011;64086;43.220;27.878;2023-07-31T08:15:06;6.97;;;6.57;;
75506;SDS011;64086;43.220;27.878;2023-07-31T08:17:32;7.25;;;6.75;;
75506;SDS011;64086;43.220;27.878;2023-07-31T08:19:58;7.55;;;7.05;;
75506;SDS011;64086;43.220;27.878;2023-07-31T08:22:23;7.50;;;6.95;;
75506;SDS011;64086;43.220;27.878;2023-07-31T08:24:50;7.15;;;6.60;;
75506;SDS011;64086;43.220;27.878;2023-07-31T08:27:15;7.55;;;7.03;;
75506;SDS011;64086;43.220;27.878;2023-07-31T08:29:40;7.55;;;6.93;;
75506;SDS011;64086;43.220;27.878;2023-07-31T08:32:06;7.22;;;6.60;;
75506;SDS011;64086;43.220;27.878;2023-07-31T08:34:31;7.20;;;6.70;;
75506;SDS011;64086;43.220;27.878;2023-07-31T08:36:57;7.00;;;6.40;;
75506;SDS011;64086;43.220;27.878;2023-07-31T08:39:22;7.68;;;7.07;;
75506;SDS011;64086;43.220;27.878;2023-07-31T08:41:48;7.18;;;6.68;;
75506;SDS011;64086;43.220;27.878;2023-07-31T08:44:13;6.32;;;5.93;;
75506;SDS011;64086;43.220;27.878;2023-07-31T08:46:39;6.95;;;6.43;;
75506;SDS011;64086;43.220;27.878;2023-07-31T08:49:05;6.57;;;6.10;;
75506;SDS011;64086;43.220;27.878;2023-07-31T08:51:34;6.47;;;5.97;;
75506;SDS011;64086;43.220;27.878;2023-07-31T08:54:00;6.22;;;5.68;;
75506;SDS011;64086;43.220;27.878;2023-07-31T08:56:26;6.45;;;5.57;;
75506;SDS011;64086;43.220;27.878;2023-07-31T08:58:52;6.38;;;5.88;;
75506;SDS011;64086;43.220;27.878;2023-07-31T09:01:19;6.05;;;5.65;;
75506;SDS011;64086;43.220;27.878;2023-07-31T09:03:44;6.10;;;5.60;;
75506;SDS011;64086;43.220;27.878;2023-07-31T09:06:10;6.32;;;5.72;;
75506;SDS011;64086;43.220;27.878;2023-07-31T09:08:37;6.47;;;5.88;;
75506;SDS011;64086;43.220;27.878;2023-07-31T09:11:03;6.40;;;5.82;;
75506;SDS011;64086;43.220;27.878;2023-07-31T09:13:30;6.13;;;5.53;;
75506;SDS011;64086;43.220;27.878;2023-07-31T09:15:56;6.00;;;5.50;;
75506;SDS011;64086;43.220;27.878;2023-07-31T09:18:21;5.78;;;5.15;;
75506;SDS011;64086;43.220;27.878;2023-07-31T09:21:00;5.97;;;5.38;;
75506;SDS011;64086;43.220;27.878;2023-07-31T09:23:27;5.80;;;5.30;;
75506;SDS011;64086;43.220;27.878;2023-07-31T09:26:05;6.05;;;5.65;;
75506;SDS011;64086;43.220;27.878;2023-07-31T09:28:30;5.78;;;5.28;;
75506;SDS011;64086;43.220;27.878;2023-07-31T09:30:56;5.60;;;5.20;;
75506;SDS011;64086;43.220;27.878;2023-07-31T09:33:22;6.63;;;6.03;;
75506;SDS011;64086;43.220;27.878;2023-07-31T09:38:31;6.20;;;5.57;;
75506;SDS011;64086;43.220;27.878;2023-07-31T09:40:57;6.65;;;6.15;;
75506;SDS011;64086;43.220;27.878;2023-07-31T09:43:23;6.60;;;6.00;;
75506;SDS011;64086;43.220;27.878;2023-07-31T09:45:54;6.65;;;6.05;;
75506;SDS011;64086;43.220;27.878;2023-07-31T09:48:23;6.20;;;5.57;;
75506;SDS011;64086;43.220;27.878;2023-07-31T09:50:50;6.32;;;5.82;;
75506;SDS011;64086;43.220;27.878;2023-07-31T09:53:16;5.88;;;5.38;;
75506;SDS011;64086;43.220;27.878;2023-07-31T09:55:42;5.60;;;5.10;;
75506;SDS011;64086;43.220;27.878;2023-07-31T09:58:11;5.55;;;5.15;;
75506;SDS011;64086;43.220;27.878;2023-07-31T10:00:37;5.55;;;5.13;;
75506;SDS011;64086;43.220;27.878;2023-07-31T10:03:10;5.85;;;5.35;;
75506;SDS011;64086;43.220;27.878;2023-07-31T10:05:42;6.38;;;5.80;;
75506;SDS011;64086;43.220;27.878;2023-07-31T10:08:13;6.13;;;5.53;;
75506;SDS011;64086;43.220;27.878;2023-07-31T10:10:43;5.72;;;5.32;;
75506;SDS011;64086;43.220;27.878;2023-07-31T10:13:09;6.40;;;6.00;;
75506;SDS011;64086;43.220;27.878;2023-07-31T10:15:36;6.45;;;5.93;;
75506;SDS011;64086;43.220;27.878;2023-07-31T10:18:02;8.07;;;6.72;;
75506;SDS011;64086;43.220;27.878;2023-07-31T10:20:28;6.40;;;5.90;;
75506;SDS011;64086;43.220;27.878;2023-07-31T10:22:57;6.07;;;5.57;;
75506;SDS011;64086;43.220;27.878;2023-07-31T10:25:24;6.35;;;5.85;;
75506;SDS011;64086;43.220;27.878;2023-07-31T10:27:49;6.20;;;5.80;;
75506;SDS011;64086;43.220;27.878;2023-07-31T10:30:16;6.10;;;5.60;;
75506;SDS011;64086;43.220;27.878;2023-07-31T10:32:43;6.38;;;5.88;;
75506;SDS011;64086;43.220;27.878;2023-07-31T10:35:09;6.18;;;5.63;;
75506;SDS011;64086;43.220;27.878;2023-07-31T10:37:39;6.00;;;5.50;;
75506;SDS011;64086;43.220;27.878;2023-07-31T10:48:03;6.00;;;5.50;;
75506;SDS011;64086;43.220;27.878;2023-07-31T10:50:29;6.40;;;5.88;;
75506;SDS011;64086;43.220;27.878;2023-07-31T10:52:58;5.70;;;5.20;;
75506;SDS011;64086;43.220;27.878;2023-07-31T10:57:53;5.68;;;5.20;;
75506;SDS011;64086;43.220;27.878;2023-07-31T11:00:24;5.35;;;4.95;;
75506;SDS011;64086;43.220;27.878;2023-07-31T11:02:58;5.80;;;5.22;;
75506;SDS011;64086;43.220;27.878;2023-07-31T11:05:52;5.10;;;4.70;;
75506;SDS011;64086;43.220;27.878;2023-07-31T11:08:26;5.55;;;5.05;;
75506;SDS011;64086;43.220;27.878;2023-07-31T11:13:27;5.82;;;5.32;;
75506;SDS011;64086;43.220;27.878;2023-07-31T11:15:55;6.18;;;5.60;;
75506;SDS011;64086;43.220;27.878;2023-07-31T11:18:21;6.13;;;5.63;;
75506;SDS011;64086;43.220;27.878;2023-07-31T11:20:46;6.00;;;5.45;;
75506;SDS011;64086;43.220;27.878;2023-07-31T11:23:12;6.20;;;5.57;;
75506;SDS011;64086;43.220;27.878;2023-07-31T11:25:38;5.38;;;4.97;;
75506;SDS011;64086;43.220;27.878;2023-07-31T11:28:10;5.30;;;4.90;;
75506;SDS011;64086;43.220;27.878;2023-07-31T11:30:39;5.43;;;5.03;;
75506;SDS011;64086;43.220;27.878;2023-07-31T11:33:09;5.05;;;4.68;;
75506;SDS011;64086;43.220;27.878;2023-07-31T11:35:36;5.05;;;4.65;;
75506;SDS011;64086;43.220;27.878;2023-07-31T11:38:11;5.95;;;5.45;;
75506;SDS011;64086;43.220;27.878;2023-07-31T11:40:46;5.65;;;5.05;;
75506;SDS011;64086;43.220;27.878;2023-07-31T11:43:11;5.40;;;5.00;;
75506;SDS011;64086;43.220;27.878;2023-07-31T11:45:41;5.50;;;5.10;;
75506;SDS011;64086;43.220;27.878;2023-07-31T11:48:06;7.10;;;5.63;;
75506;SDS011;64086;43.220;27.878;2023-07-31T11:50:33;6.50;;;5.90;;
75506;SDS011;64086;43.220;27.878;2023-07-31T11:52:59;6.93;;;6.18;;
75506;SDS011;64086;43.220;27.878;2023-07-31T11:55:26;8.18;;;5.80;;
75506;SDS011;64086;43.220;27.878;2023-07-31T11:57:51;6.75;;;6.15;;
75506;SDS011;64086;43.220;27.878;2023-07-31T12:00:18;6.60;;;5.90;;
75506;SDS011;64086;43.220;27.878;2023-07-31T12:02:44;6.88;;;6.28;;
75506;SDS011;64086;43.220;27.878;2023-07-31T12:05:10;6.50;;;6.00;;
75506;SDS011;64086;43.220;27.878;2023-07-31T12:07:47;7.68;;;6.00;;
75506;SDS011;64086;43.220;27.878;2023-07-31T12:10:29;10.45;;;6.50;;
75506;SDS011;64086;43.220;27.878;2023-07-31T12:13:05;7.43;;;6.70;;
75506;SDS011;64086;43.220;27.878;2023-07-31T12:15:45;7.03;;;6.53;;
75506;SDS011;64086;43.220;27.878;2023-07-31T12:20:44;7.13;;;6.53;;
75506;SDS011;64086;43.220;27.878;2023-07-31T12:23:17;7.40;;;6.72;;
75506;SDS011;64086;43.220;27.878;2023-07-31T12:25:59;7.50;;;6.70;;
75506;SDS011;64086;43.220;27.878;2023-07-31T12:28:40;7.20;;;6.55;;
75506;SDS011;64086;43.220;27.878;2023-07-31T12:31:08;7.07;;;6.45;;
75506;SDS011;64086;43.220;27.878;2023-07-31T12:33:36;7.55;;;6.95;;
75506;SDS011;64086;43.220;27.878;2023-07-31T12:36:04;6.90;;;6.32;;
75506;SDS011;64086;43.220;27.878;2023-07-31T12:38:32;6.80;;;6.20;;
75506;SDS011;64086;43.220;27.878;2023-07-31T12:40:58;6.55;;;5.90;;
75506;SDS011;64086;43.220;27.878;2023-07-31T12:43:24;6.70;;;6.10;;
75506;SDS011;64086;43.220;27.878;2023-07-31T12:45:49;6.40;;;5.90;;
75506;SDS011;64086;43.220;27.878;2023-07-31T12:48:15;6.65;;;6.05;;
75506;SDS011;64086;43.220;27.878;2023-07-31T12:50:40;6.65;;;6.05;;
75506;SDS011;64086;43.220;27.878;2023-07-31T12:53:06;6.38;;;5.88;;
75506;SDS011;64086;43.220;27.878;2023-07-31T12:55:32;6.50;;;5.90;;
75506;SDS011;64086;43.220;27.878;2023-07-31T12:57:59;6.20;;;5.63;;
75506;SDS011;64086;43.220;27.878;2023-07-31T13:00:25;6.82;;;6.13;;
75506;SDS011;64086;43.220;27.878;2023-07-31T13:02:51;6.28;;;5.78;;
75506;SDS011;64086;43.220;27.878;2023-07-31T13:05:17;6.30;;;5.80;;
75506;SDS011;64086;43.220;27.878;2023-07-31T13:07:43;6.35;;;5.78;;
75506;SDS011;64086;43.220;27.878;2023-07-31T13:10:08;5.85;;;5.35;;
75506;SDS011;64086;43.220;27.878;2023-07-31T13:12:34;5.57;;;5.10;;
75506;SDS011;64086;43.220;27.878;2023-07-31T13:14:59;5.72;;;5.18;;
75506;SDS011;64086;43.220;27.878;2023-07-31T13:17:25;5.55;;;5.13;;
75506;SDS011;64086;43.220;27.878;2023-07-31T13:19:51;6.07;;;5.57;;
75506;SDS011;64086;43.220;27.878;2023-07-31T13:22:16;5.68;;;5.25;;
75506;SDS011;64086;43.220;27.878;2023-07-31T13:24:42;5.82;;;5.43;;
75506;SDS011;64086;43.220;27.878;2023-07-31T13:27:07;6.78;;;5.78;;
75506;SDS011;64086;43.220;27.878;2023-07-31T13:29:33;6.10;;;5.60;;
75506;SDS011;64086;43.220;27.878;2023-07-31T13:31:58;6.72;;;6.13;;
75506;SDS011;64086;43.220;27.878;2023-07-31T13:34:24;7.07;;;6.00;;
75506;SDS011;64086;43.220;27.878;2023-07-31T13:36:49;6.53;;;5.93;;
75506;SDS011;64086;43.220;27.878;2023-07-31T13:39:14;6.65;;;6.05;;
75506;SDS011;64086;43.220;27.878;2023-07-31T13:41:40;6.60;;;6.10;;
75506;SDS011;64086;43.220;27.878;2023-07-31T13:44:05;7.15;;;6.55;;
75506;SDS011;64086;43.220;27.878;2023-07-31T13:46:31;6.65;;;6.00;;
75506;SDS011;64086;43.220;27.878;2023-07-31T13:48:57;7.25;;;6.65;;
75506;SDS011;64086;43.220;27.878;2023-07-31T13:51:24;7.07;;;6.57;;
75506;SDS011;64086;43.220;27.878;2023-07-31T13:53:50;7.07;;;6.28;;
75506;SDS011;64086;43.220;27.878;2023-07-31T13:56:16;6.68;;;6.07;;
75506;SDS011;64086;43.220;27.878;2023-07-31T13:58:41;8.20;;;5.88;;
75506;SDS011;64086;43.220;27.878;2023-07-31T14:01:06;7.30;;;6.60;;
75506;SDS011;64086;43.220;27.878;2023-07-31T14:03:32;8.27;;;6.28;;
75506;SDS011;64086;43.220;27.878;2023-07-31T14:05:57;9.63;;;6.68;;
75506;SDS011;64086;43.220;27.878;2023-07-31T14:08:23;7.18;;;6.57;;
75506;SDS011;64086;43.220;27.878;2023-07-31T14:10:48;7.43;;;6.68;;
75506;SDS011;64086;43.220;27.878;2023-07-31T14:13:14;7.40;;;6.78;;
75506;SDS011;64086;43.220;27.878;2023-07-31T14:15:41;6.90;;;6.30;;
75506;SDS011;64086;43.220;27.878;2023-07-31T14:18:07;7.45;;;6.85;;
75506;SDS011;64086;43.220;27.878;2023-07-31T14:20:33;7.60;;;7.00;;
75506;SDS011;64086;43.220;27.878;2023-07-31T14:22:58;7.93;;;6.80;;
75506;SDS011;64086;43.220;27.878;2023-07-31T14:25:24;7.72;;;7.13;;
75506;SDS011;64086;43.220;27.878;2023-07-31T14:27:49;8.30;;;7.70;;
75506;SDS011;64086;43.220;27.878;2023-07-31T14:30:15;8.30;;;7.70;;
75506;SDS011;64086;43.220;27.878;2023-07-31T14:32:41;8.30;;;7.60;;
75506;SDS011;64086;43.220;27.878;2023-07-31T14:35:06;8.63;;;7.68;;
75506;SDS011;64086;43.220;27.878;2023-07-31T14:37:39;7.45;;;6.90;;
75506;SDS011;64086;43.220;27.878;2023-07-31T14:42:32;6.97;;;6.47;;
75506;SDS011;64086;43.220;27.878;2023-07-31T14:44:57;7.18;;;6.68;;
75506;SDS011;64086;43.220;27.878;2023-07-31T14:47:23;7.40;;;6.80;;
75506;SDS011;64086;43.220;27.878;2023-07-31T14:49:48;7.63;;;7.03;;
75506;SDS011;64086;43.220;27.878;2023-07-31T14:52:14;7.90;;;7.18;;
75506;SDS011;64086;43.220;27.878;2023-07-31T14:54:39;6.95;;;6.40;;
75506;SDS011;64086;43.220;27.878;2023-07-31T14:57:05;6.85;;;6.35;;
75506;SDS011;64086;43.220;27.878;2023-07-31T14:59:31;6.22;;;5.75;;
75506;SDS011;64086;43.220;27.878;2023-07-31T15:01:56;6.50;;;6.00;;
75506;SDS011;64086;43.220;27.878;2023-07-31T15:04:22;6.50;;;6.00;;
75506;SDS011;64086;43.220;27.878;2023-07-31T15:06:47;7.00;;;6.40;;
75506;SDS011;64086;43.220;27.878;2023-07-31T15:09:13;6.95;;;6.45;;
75506;SDS011;64086;43.220;27.878;2023-07-31T15:11:39;7.03;;;6.50;;